Time;durP1;ratioP1;P1;durP2;ratioP2;P2;SDS_P1;SDS_P2;PMS_P1;PMS_P2;Temp;Humidity;BMP_temperature;BMP_pressure;BME280_temperature;BME280_humidity;BME280_pressure;Samples;Min_cycle;Max_cycle;Signal;HPM_P1;HPM_P2
2023/03/16 00:00:39;;;;;;;3.47;1.50;;;;;;;;;;5127313;27;20445;-45
2023/03/16 00:03:05;;;;;;;1.60;1.10;;;;;;;;;;5127755;27;20091;-46
2023/03/16 00:05:31;;;;;;;2.30;1.10;;;;;;;;;;5128053;27;20027;-46
2023/03/16 00:07:57;;;;;;;1.08;0.98;;;;;;;;;;5128060;27;20035;-45
2023/03/16 00:10:26;;;;;;;2.45;1.27;;;;;;;;;;5128134;27;20050;-45
2023/03/16 00:12:52;;;;;;;1.23;0.90;;;;;;;;;;5128513;27;20035;-45
2023/03/16 00:15:19;;;;;;;1.55;1.17;;;;;;;;;;5128621;27;20375;-46
2023/03/16 00:17:47;;;;;;;1.77;1.23;;;;;;;;;;5127507;27;20031;-47
2023/03/16 00:20:17;;;;;;;2.60;1.30;;;;;;;;;;5127886;27;20025;-48
2023/03/16 00:22:43;;;;;;;2.30;1.30;;;;;;;;;;5127829;27;20111;-49
2023/03/16 00:25:09;;;;;;;3.10;1.40;;;;;;;;;;5127873;27;20027;-46
2023/03/16 00:27:35;;;;;;;1.48;1.35;;;;;;;;;;5127822;27;20038;-47
2023/03/16 00:30:02;;;;;;;2.72;1.42;;;;;;;;;;5127768;27;20034;-45
2023/03/16 00:32:30;;;;;;;2.58;1.60;;;;;;;;;;5127412;27;20027;-47
2023/03/16 00:34:57;;;;;;;2.60;1.38;;;;;;;;;;5127639;28;20069;-47
2023/03/16 00:37:24;;;;;;;2.38;1.23;;;;;;;;;;5127890;28;20432;-47
2023/03/16 00:39:50;;;;;;;2.97;1.65;;;;;;;;;;5128018;28;20026;-48
2023/03/16 00:42:17;;;;;;;2.70;1.40;;;;;;;;;;5127076;27;20742;-45
2023/03/16 00:44:43;;;;;;;3.28;1.60;;;;;;;;;;5127007;28;20081;-47
2023/03/16 00:47:13;;;;;;;4.13;1.80;;;;;;;;;;5126920;28;20034;-46
2023/03/16 00:49:41;;;;;;;3.65;1.48;;;;;;;;;;5127265;28;20493;-46
2023/03/16 00:52:08;;;;;;;3.35;1.70;;;;;;;;;;5127621;28;20110;-46
2023/03/16 00:54:34;;;;;;;3.15;1.60;;;;;;;;;;5127438;28;20019;-46
2023/03/16 00:57:00;;;;;;;1.77;1.27;;;;;;;;;;5127308;28;20508;-46
2023/03/16 00:59:27;;;;;;;3.25;1.50;;;;;;;;;;5127631;28;20032;-46
2023/03/16 01:01:53;;;;;;;3.28;1.75;;;;;;;;;;5116350;28;20028;-46
2023/03/16 01:04:19;;;;;;;3.15;1.50;;;;;;;;;;5107914;28;20041;-46
2023/03/16 06:11:16;;;;;;;2.72;1.65;;;;;;;;;;5103288;27;20036;-47
2023/03/16 06:13:42;;;;;;;3.08;2.03;;;;;;;;;;5108652;28;20032;-47
2023/03/16 06:16:10;;;;;;;5.22;2.20;;;;;;;;;;5108792;28;20024;-47
2023/03/16 06:18:38;;;;;;;5.05;2.13;;;;;;;;;;5107106;28;20076;-46
2023/03/16 06:21:04;;;;;;;3.17;1.95;;;;;;;;;;5107432;28;20510;-47
2023/03/16 06:23:31;;;;;;;3.28;1.70;;;;;;;;;;5107252;28;20019;-47
2023/03/16 06:25:58;;;;;;;2.90;1.55;;;;;;;;;;5108276;28;20024;-47
2023/03/16 06:28:25;;;;;;;3.65;2.05;;;;;;;;;;5106966;28;20270;-46
2023/03/16 06:30:54;;;;;;;3.88;1.88;;;;;;;;;;5109274;28;20099;-45
2023/03/16 06:33:20;;;;;;;3.05;1.65;;;;;;;;;;5103406;28;20051;-46
2023/03/16 06:35:50;;;;;;;2.63;1.67;;;;;;;;;;5108942;28;20066;-46
2023/03/16 06:38:17;;;;;;;2.60;1.65;;;;;;;;;;5106587;28;20050;-44
2023/03/16 06:40:43;;;;;;;3.15;1.83;;;;;;;;;;5108586;28;20039;-46
2023/03/16 06:43:10;;;;;;;1.98;1.30;;;;;;;;;;5106787;28;20536;-46
2023/03/16 06:45:37;;;;;;;2.67;1.60;;;;;;;;;;5108447;28;20096;-44
2023/03/16 06:48:04;;;;;;;2.97;1.58;;;;;;;;;;5106666;28;20039;-47
2023/03/16 06:50:31;;;;;;;3.78;1.50;;;;;;;;;;5109225;28;20023;-45
2023/03/16 06:52:58;;;;;;;2.90;1.73;;;;;;;;;;5104993;28;20038;-47
2023/03/16 06:55:24;;;;;;;2.47;1.50;;;;;;;;;;5109117;28;20454;-48
2023/03/16 06:57:51;;;;;;;1.83;1.20;;;;;;;;;;5106253;28;20067;-49
2023/03/16 07:00:17;;;;;;;1.20;1.10;;;;;;;;;;5107689;28;20020;-46
2023/03/16 07:02:43;;;;;;;2.33;1.38;;;;;;;;;;5105821;28;20118;-45
2023/03/16 07:05:12;;;;;;;2.83;1.30;;;;;;;;;;5108150;28;20039;-45
2023/03/16 07:07:39;;;;;;;2.30;1.50;;;;;;;;;;5106673;28;20038;-46
2023/03/16 07:10:05;;;;;;;1.95;1.30;;;;;;;;;;5108341;28;20023;-46
2023/03/16 07:12:31;;;;;;;2.20;1.40;;;;;;;;;;5106802;28;20466;-47
2023/03/16 07:14:57;;;;;;;1.30;1.20;;;;;;;;;;5106418;28;20027;-45
2023/03/16 07:17:23;;;;;;;1.52;0.90;;;;;;;;;;5106213;28;20046;-46
2023/03/16 07:19:50;;;;;;;1.00;0.90;;;;;;;;;;5108044;28;20103;-47
2023/03/16 07:22:16;;;;;;;1.63;0.90;;;;;;;;;;5106431;28;20080;-47
2023/03/16 07:24:43;;;;;;;1.45;0.98;;;;;;;;;;5107058;28;20495;-48
2023/03/16 07:27:09;;;;;;;1.25;0.95;;;;;;;;;;5108051;28;20035;-48
2023/03/16 07:29:35;;;;;;;0.85;0.75;;;;;;;;;;5108406;28;20415;-48
2023/03/16 07:32:02;;;;;;;1.58;0.90;;;;;;;;;;5108479;28;20030;-46
2023/03/16 07:34:28;;;;;;;1.33;0.82;;;;;;;;;;5108546;28;20066;-45
2023/03/16 07:36:54;;;;;;;0.77;0.68;;;;;;;;;;5108643;28;20024;-47
2023/03/16 07:39:20;;;;;;;0.60;0.60;;;;;;;;;;5109056;28;20028;-47
2023/03/16 07:41:46;;;;;;;1.50;0.90;;;;;;;;;;5108699;28;20028;-47
2023/03/16 07:44:13;;;;;;;0.90;0.70;;;;;;;;;;5109474;28;20490;-47
2023/03/16 07:46:39;;;;;;;0.73;0.70;;;;;;;;;;5109293;28;20792;-47
2023/03/16 07:49:05;;;;;;;1.10;0.70;;;;;;;;;;5109050;28;20023;-50
2023/03/16 07:51:31;;;;;;;1.02;0.68;;;;;;;;;;5109395;28;20123;-48
2023/03/16 07:53:57;;;;;;;1.15;0.70;;;;;;;;;;5109846;28;20486;-49
2023/03/16 07:56:23;;;;;;;1.38;0.70;;;;;;;;;;5108270;28;20027;-48
2023/03/16 07:58:50;;;;;;;1.88;1.10;;;;;;;;;;5106459;28;20372;-49
2023/03/16 08:01:17;;;;;;;1.08;0.73;;;;;;;;;;5107989;28;20034;-48
2023/03/16 08:03:43;;;;;;;1.00;0.80;;;;;;;;;;5107687;28;20027;-48
2023/03/16 08:06:10;;;;;;;0.90;0.60;;;;;;;;;;5108091;28;20430;-47
2023/03/16 08:08:37;;;;;;;0.82;0.70;;;;;;;;;;5107549;28;20042;-47
2023/03/16 08:11:03;;;;;;;1.63;0.93;;;;;;;;;;5107868;28;20030;-49
2023/03/16 08:13:30;;;;;;;0.70;0.60;;;;;;;;;;5107137;28;20024;-45
2023/03/16 08:16:00;;;;;;;0.77;0.50;;;;;;;;;;5107607;28;20035;-48
2023/03/16 08:18:26;;;;;;;0.85;0.52;;;;;;;;;;5107741;28;20020;-46
2023/03/16 08:20:53;;;;;;;0.80;0.60;;;;;;;;;;5107771;28;20024;-46
2023/03/16 08:23:21;;;;;;;1.17;0.60;;;;;;;;;;5107476;28;20032;-50
2023/03/16 08:25:51;;;;;;;0.40;0.40;;;;;;;;;;5107530;28;20047;-46
2023/03/16 08:28:20;;;;;;;0.60;0.43;;;;;;;;;;5107691;28;20032;-46
2023/03/16 08:30:47;;;;;;;0.65;0.47;;;;;;;;;;5107445;28;20406;-46
2023/03/16 08:33:13;;;;;;;0.32;0.32;;;;;;;;;;5107260;28;20445;-48
2023/03/16 08:35:42;;;;;;;0.52;0.50;;;;;;;;;;5107189;28;20032;-50
2023/03/16 08:38:08;;;;;;;0.68;0.50;;;;;;;;;;5107288;28;20016;-48
2023/03/16 08:40:35;;;;;;;0.43;0.40;;;;;;;;;;5107260;28;20491;-49
2023/03/16 08:43:02;;;;;;;0.40;0.40;;;;;;;;;;5107298;28;20098;-48
2023/03/16 08:45:29;;;;;;;0.40;0.40;;;;;;;;;;5107860;28;20046;-47
2023/03/16 08:47:55;;;;;;;0.52;0.47;;;;;;;;;;5107504;28;20111;-47
2023/03/16 08:50:21;;;;;;;0.70;0.50;;;;;;;;;;5107240;28;20114;-49
2023/03/16 08:52:50;;;;;;;0.40;0.40;;;;;;;;;;5106759;28;20024;-48
2023/03/16 08:55:16;;;;;;;0.43;0.40;;;;;;;;;;5107164;28;20066;-46
2023/03/16 08:57:44;;;;;;;0.65;0.35;;;;;;;;;;5106915;28;20517;-48
2023/03/16 09:00:14;;;;;;;0.38;0.32;;;;;;;;;;5107366;28;20287;-46
2023/03/16 09:02:41;;;;;;;0.40;0.40;;;;;;;;;;5106929;28;20031;-46
2023/03/16 09:05:09;;;;;;;0.57;0.57;;;;;;;;;;5107041;28;20031;-49
2023/03/16 09:07:36;;;;;;;0.70;0.50;;;;;;;;;;5107019;28;20031;-47
2023/03/16 09:10:04;;;;;;;1.33;0.75;;;;;;;;;;5107234;28;20032;-48
2023/03/16 09:12:30;;;;;;;0.70;0.43;;;;;;;;;;5107136;28;20031;-45
2023/03/16 09:14:56;;;;;;;0.60;0.60;;;;;;;;;;5107313;28;20023;-48
2023/03/16 09:17:22;;;;;;;1.45;0.50;;;;;;;;;;5106965;28;20040;-48
2023/03/16 09:19:49;;;;;;;0.40;0.40;;;;;;;;;;5106871;28;20483;-48
2023/03/16 09:22:15;;;;;;;0.60;0.40;;;;;;;;;;5107118;28;20051;-49
2023/03/16 09:24:41;;;;;;;0.50;0.50;;;;;;;;;;5107512;28;20023;-46
2023/03/16 09:27:07;;;;;;;0.60;0.50;;;;;;;;;;5110201;28;20579;-46
2023/03/16 09:29:34;;;;;;;1.52;0.50;;;;;;;;;;5110749;28;20039;-47
2023/03/16 09:32:00;;;;;;;0.40;0.40;;;;;;;;;;5110591;28;20106;-48
2023/03/16 09:34:27;;;;;;;1.15;0.60;;;;;;;;;;5110790;28;20124;-47
2023/03/16 09:36:54;;;;;;;1.00;0.65;;;;;;;;;;5110494;28;20016;-49
2023/03/16 09:39:21;;;;;;;0.70;0.50;;;;;;;;;;5110572;28;20028;-48
2023/03/16 09:42:03;;;;;;;0.70;0.47;;;;;;;;;;5110139;28;20027;-46
2023/03/16 09:44:44;;;;;;;0.60;0.60;;;;;;;;;;5110753;28;20436;-49
2023/03/16 09:47:11;;;;;;;0.40;0.40;;;;;;;;;;5110458;28;20444;-47
2023/03/16 09:49:43;;;;;;;0.50;0.50;;;;;;;;;;5110442;28;20035;-47
2023/03/16 09:52:29;;;;;;;0.47;0.47;;;;;;;;;;5110280;28;20320;-48
2023/03/16 09:55:15;;;;;;;1.10;0.60;;;;;;;;;;5110319;28;20024;-49
2023/03/16 09:57:43;;;;;;;0.50;0.50;;;;;;;;;;5109948;28;20549;-47
2023/03/16 10:00:17;;;;;;;0.40;0.40;;;;;;;;;;5110100;28;20444;-46
2023/03/16 10:02:54;;;;;;;0.85;0.60;;;;;;;;;;5110168;28;20028;-47
2023/03/16 10:05:21;;;;;;;0.68;0.50;;;;;;;;;;5110142;28;20032;-51
2023/03/16 10:08:11;;;;;;;0.95;0.60;;;;;;;;;;5110019;28;20072;-46
2023/03/16 10:10:44;;;;;;;0.30;0.30;;;;;;;;;;5072227;28;20046;-46
2023/03/16 10:13:25;;;;;;;1.25;0.70;;;;;;;;;;5106800;28;20896;-48
2023/03/16 10:15:52;;;;;;;1.05;0.70;;;;;;;;;;5105437;28;20115;-47
2023/03/16 10:18:31;;;;;;;0.60;0.52;;;;;;;;;;5088216;28;20072;-49
2023/03/16 10:20:58;;;;;;;1.25;0.70;;;;;;;;;;5090719;28;20057;-50
2023/03/16 10:23:25;;;;;;;0.65;0.55;;;;;;;;;;5108096;28;20020;-46
2023/03/16 10:25:53;;;;;;;1.60;0.70;;;;;;;;;;5108132;28;20058;-48
2023/03/16 10:28:20;;;;;;;1.05;0.60;;;;;;;;;;5108027;28;20023;-50
2023/03/16 10:30:50;;;;;;;0.82;0.60;;;;;;;;;;5108259;28;20055;-46
2023/03/16 10:33:25;;;;;;;1.00;0.80;;;;;;;;;;5108217;28;20514;-46
2023/03/16 10:35:57;;;;;;;0.85;0.60;;;;;;;;;;5106506;28;20394;-47
2023/03/16 10:38:39;;;;;;;2.08;0.90;;;;;;;;;;5106157;28;20491;-47
2023/03/16 10:41:17;;;;;;;1.85;0.90;;;;;;;;;;5087164;28;20495;-46
2023/03/16 10:43:54;;;;;;;1.92;0.93;;;;;;;;;;5086963;28;20024;-48
2023/03/16 10:46:22;;;;;;;1.20;0.93;;;;;;;;;;5087485;28;20365;-49
2023/03/16 10:48:53;;;;;;;1.67;0.93;;;;;;;;;;5087604;28;20420;-47
2023/03/16 10:51:22;;;;;;;1.80;1.20;;;;;;;;;;5087840;28;20490;-50
2023/03/16 10:53:48;;;;;;;2.58;1.08;;;;;;;;;;5091769;28;20398;-46
2023/03/16 10:56:22;;;;;;;1.40;0.98;;;;;;;;;;5107539;28;20028;-48
2023/03/16 10:58:49;;;;;;;1.85;1.00;;;;;;;;;;5107058;28;20451;-46
2023/03/16 11:01:17;;;;;;;1.63;0.60;;;;;;;;;;5098709;27;20099;-48
2023/03/16 11:03:48;;;;;;;1.25;0.75;;;;;;;;;;5105971;28;20518;-48
2023/03/16 11:06:32;;;;;;;2.40;0.98;;;;;;;;;;5105589;28;20391;-47
2023/03/16 11:09:07;;;;;;;1.67;1.08;;;;;;;;;;5106194;28;20026;-48
2023/03/16 11:11:33;;;;;;;5.07;1.20;;;;;;;;;;5103665;28;20426;-51
2023/03/16 11:14:01;;;;;;;0.98;0.82;;;;;;;;;;5105827;28;20461;-49
2023/03/16 11:16:45;;;;;;;2.78;0.85;;;;;;;;;;5105423;28;20035;-47
2023/03/16 11:19:23;;;;;;;1.80;0.77;;;;;;;;;;5105889;28;20172;-50
2023/03/16 11:22:03;;;;;;;1.27;0.80;;;;;;;;;;5105895;28;20028;-50
2023/03/16 11:24:47;;;;;;;1.77;0.85;;;;;;;;;;5105186;28;20046;-47
2023/03/16 11:27:20;;;;;;;1.67;0.75;;;;;;;;;;5095824;28;20541;-51
2023/03/16 11:29:55;;;;;;;2.20;1.00;;;;;;;;;;5106016;28;20076;-51
2023/03/16 11:32:27;;;;;;;3.47;1.02;;;;;;;;;;5105342;28;20032;-51
2023/03/16 11:34:54;;;;;;;0.98;0.80;;;;;;;;;;5105195;28;20031;-47
2023/03/16 11:37:24;;;;;;;1.52;0.90;;;;;;;;;;5105808;28;20058;-47
2023/03/16 11:40:14;;;;;;;2.55;1.10;;;;;;;;;;5105641;28;20446;-50
2023/03/16 11:42:46;;;;;;;3.13;0.75;;;;;;;;;;5105029;28;20123;-50
2023/03/16 11:45:21;;;;;;;2.28;0.82;;;;;;;;;;5105118;28;20107;-47
2023/03/16 11:48:06;;;;;;;1.92;0.65;;;;;;;;;;5106910;28;20073;-50
2023/03/16 11:50:35;;;;;;;1.27;0.60;;;;;;;;;;5105770;28;20028;-50
2023/03/16 11:53:17;;;;;;;1.83;0.65;;;;;;;;;;5106746;28;20110;-48
2023/03/16 11:55:58;;;;;;;3.78;0.70;;;;;;;;;;5105767;28;20132;-49
2023/03/16 11:58:34;;;;;;;2.05;0.80;;;;;;;;;;5106049;28;20042;-49
2023/03/16 12:01:18;;;;;;;1.08;0.60;;;;;;;;;;5103411;28;20036;-50
2023/03/16 12:03:57;;;;;;;0.63;0.50;;;;;;;;;;5105611;28;20028;-49
2023/03/16 12:06:23;;;;;;;0.70;0.50;;;;;;;;;;5104852;28;20076;-51
2023/03/16 12:08:58;;;;;;;4.78;0.63;;;;;;;;;;5105355;28;20050;-47
2023/03/16 12:11:33;;;;;;;2.05;0.70;;;;;;;;;;5106474;28;20027;-50
2023/03/16 12:14:15;;;;;;;0.93;0.60;;;;;;;;;;5102133;28;20662;-49
2023/03/16 12:16:45;;;;;;;1.48;0.80;;;;;;;;;;5104922;28;20106;-48
2023/03/16 12:19:17;;;;;;;1.38;0.60;;;;;;;;;;5105839;28;20173;-48
2023/03/16 12:21:45;;;;;;;0.60;0.60;;;;;;;;;;5106180;28;20019;-50
2023/03/16 12:24:16;;;;;;;0.57;0.50;;;;;;;;;;5105331;28;20027;-51
2023/03/16 12:26:43;;;;;;;1.45;0.50;;;;;;;;;;5105985;28;20450;-50
2023/03/16 12:29:15;;;;;;;1.00;0.70;;;;;;;;;;5106131;28;20737;-51
2023/03/16 12:31:54;;;;;;;0.98;0.50;;;;;;;;;;5105862;28;20779;-49
2023/03/16 12:34:23;;;;;;;2.95;0.68;;;;;;;;;;5106155;28;20035;-50
2023/03/16 12:37:06;;;;;;;1.42;0.70;;;;;;;;;;5106011;28;20022;-51
2023/03/16 12:39:32;;;;;;;1.55;0.77;;;;;;;;;;5106193;28;20032;-48
2023/03/16 12:42:03;;;;;;;1.33;0.90;;;;;;;;;;5105245;28;20035;-47
2023/03/16 12:44:33;;;;;;;1.00;0.50;;;;;;;;;;5106246;28;20037;-49
2023/03/16 12:47:23;;;;;;;1.42;0.63;;;;;;;;;;5106213;28;20020;-50
2023/03/16 12:49:50;;;;;;;1.33;0.68;;;;;;;;;;5102793;28;20076;-51
2023/03/16 12:52:16;;;;;;;1.20;0.60;;;;;;;;;;5105507;28;20032;-49
2023/03/16 12:55:09;;;;;;;2.05;0.60;;;;;;;;;;5105501;28;20106;-48
2023/03/16 12:57:35;;;;;;;3.30;0.73;;;;;;;;;;5101347;28;20038;-49
2023/03/16 13:00:06;;;;;;;1.50;0.77;;;;;;;;;;5103974;28;20141;-49
2023/03/16 13:02:35;;;;;;;1.13;0.60;;;;;;;;;;5108205;28;20668;-48
2023/03/16 13:05:07;;;;;;;1.58;0.70;;;;;;;;;;5110376;28;20036;-49
2023/03/16 13:07:34;;;;;;;1.27;0.63;;;;;;;;;;5100724;28;20028;-51
2023/03/16 13:10:00;;;;;;;0.95;0.57;;;;;;;;;;5109604;28;20040;-48
2023/03/16 13:12:29;;;;;;;0.50;0.50;;;;;;;;;;5109493;28;20402;-48
2023/03/16 13:14:56;;;;;;;1.05;0.57;;;;;;;;;;5108164;28;20122;-49
2023/03/16 13:17:24;;;;;;;0.98;0.57;;;;;;;;;;5107896;28;20059;-49
2023/03/16 13:20:02;;;;;;;0.50;0.50;;;;;;;;;;5108904;28;20119;-50
2023/03/16 13:22:31;;;;;;;0.88;0.50;;;;;;;;;;5105385;28;20022;-50
2023/03/16 13:25:00;;;;;;;0.70;0.50;;;;;;;;;;5108218;28;20045;-47
2023/03/16 13:27:28;;;;;;;2.63;0.57;;;;;;;;;;5108808;28;20028;-48
2023/03/16 13:29:55;;;;;;;0.82;0.60;;;;;;;;;;5108528;28;20105;-49
2023/03/16 13:32:22;;;;;;;0.73;0.30;;;;;;;;;;5109556;28;20398;-50
2023/03/16 13:34:49;;;;;;;0.73;0.50;;;;;;;;;;5107850;28;20039;-51
2023/03/16 13:37:17;;;;;;;0.65;0.30;;;;;;;;;;5109174;28;20023;-48
2023/03/16 13:39:52;;;;;;;0.60;0.50;;;;;;;;;;5108166;28;20028;-51
2023/03/16 13:42:19;;;;;;;0.77;0.47;;;;;;;;;;5108382;28;20020;-51
2023/03/16 13:44:46;;;;;;;0.60;0.60;;;;;;;;;;5108518;28;20057;-48
2023/03/16 13:47:13;;;;;;;0.47;0.45;;;;;;;;;;5107193;28;20027;-51
2023/03/16 13:49:46;;;;;;;1.20;0.60;;;;;;;;;;5108305;28;20524;-50
2023/03/16 13:52:26;;;;;;;0.50;0.40;;;;;;;;;;5108053;28;20602;-53
2023/03/16 13:54:53;;;;;;;2.58;0.95;;;;;;;;;;5107979;28;20022;-51
2023/03/16 13:57:23;;;;;;;1.02;0.60;;;;;;;;;;5109120;28;20035;-51
2023/03/16 13:59:52;;;;;;;1.55;0.45;;;;;;;;;;5108276;28;20538;-52
2023/03/16 14:02:19;;;;;;;0.90;0.65;;;;;;;;;;5108159;28;20034;-49
2023/03/16 14:04:46;;;;;;;1.83;0.95;;;;;;;;;;5107666;28;20410;-48
2023/03/16 14:07:19;;;;;;;0.60;0.60;;;;;;;;;;5108178;28;20023;-49
2023/03/16 14:09:48;;;;;;;1.15;0.73;;;;;;;;;;5108091;28;20437;-47
2023/03/16 14:12:15;;;;;;;1.83;0.90;;;;;;;;;;5105708;28;20012;-48
2023/03/16 14:14:42;;;;;;;1.00;0.68;;;;;;;;;;5108512;28;20035;-48
2023/03/16 14:17:10;;;;;;;1.05;0.68;;;;;;;;;;5108520;28;20028;-49
2023/03/16 14:19:46;;;;;;;2.15;0.75;;;;;;;;;;5108090;28;20035;-48
2023/03/16 14:22:12;;;;;;;0.73;0.50;;;;;;;;;;5102790;28;20024;-48
2023/03/16 14:24:39;;;;;;;1.40;0.60;;;;;;;;;;5108248;28;20054;-50
2023/03/16 14:27:29;;;;;;;1.77;0.82;;;;;;;;;;5106919;28;20761;-50
2023/03/16 14:30:14;;;;;;;0.50;0.50;;;;;;;;;;5083190;28;20047;-47
2023/03/16 14:32:40;;;;;;;1.27;0.70;;;;;;;;;;5104361;28;20020;-49
2023/03/16 14:35:12;;;;;;;0.90;0.60;;;;;;;;;;5106758;28;20027;-51
2023/03/16 14:37:39;;;;;;;0.77;0.70;;;;;;;;;;5106559;28;20023;-45
2023/03/16 14:40:07;;;;;;;0.70;0.50;;;;;;;;;;5106107;28;20532;-51
2023/03/16 14:42:34;;;;;;;2.05;0.80;;;;;;;;;;5105962;28;20023;-49
2023/03/16 14:45:03;;;;;;;0.93;0.50;;;;;;;;;;5106461;28;20027;-47
2023/03/16 14:47:30;;;;;;;2.50;0.70;;;;;;;;;;5106359;28;20024;-48
2023/03/16 14:49:57;;;;;;;1.77;0.63;;;;;;;;;;5106103;28;20035;-49
2023/03/16 14:52:31;;;;;;;2.25;0.80;;;;;;;;;;5105861;28;20300;-48
2023/03/16 14:54:57;;;;;;;1.50;0.80;;;;;;;;;;5106084;28;20085;-50
2023/03/16 14:57:25;;;;;;;0.70;0.60;;;;;;;;;;5104928;28;20054;-50
2023/03/16 14:59:52;;;;;;;2.20;0.80;;;;;;;;;;5105141;28;20024;-50
2023/03/16 15:02:18;;;;;;;1.55;0.60;;;;;;;;;;5104610;28;20024;-47
2023/03/16 15:04:45;;;;;;;1.08;0.75;;;;;;;;;;5106462;28;20065;-49
2023/03/16 15:07:20;;;;;;;1.60;0.80;;;;;;;;;;5106129;28;20034;-48
2023/03/16 15:09:48;;;;;;;0.80;0.70;;;;;;;;;;5105703;28;20059;-49
2023/03/16 15:12:18;;;;;;;1.50;0.80;;;;;;;;;;5104889;28;20020;-46
2023/03/16 15:17:30;;;;;;;3.95;0.80;;;;;;;;;;5105908;28;20409;-47
2023/03/16 15:19:56;;;;;;;1.30;0.88;;;;;;;;;;5105527;28;20552;-47
2023/03/16 15:22:26;;;;;;;0.93;0.60;;;;;;;;;;5104509;28;20536;-46
2023/03/16 15:24:53;;;;;;;1.23;0.88;;;;;;;;;;5104153;28;20488;-50
2023/03/16 15:27:20;;;;;;;1.48;0.73;;;;;;;;;;5105110;28;20755;-48
2023/03/16 15:29:46;;;;;;;1.10;0.80;;;;;;;;;;5105133;28;20070;-46
2023/03/16 15:32:14;;;;;;;1.88;0.90;;;;;;;;;;5104339;28;20016;-48
2023/03/16 15:34:40;;;;;;;1.80;0.85;;;;;;;;;;5101023;28;20032;-47
2023/03/16 15:37:11;;;;;;;1.27;0.90;;;;;;;;;;5103406;28;20080;-49
2023/03/16 15:39:37;;;;;;;2.00;0.70;;;;;;;;;;5100757;28;20020;-50
2023/03/16 15:42:11;;;;;;;0.90;0.60;;;;;;;;;;5104662;28;20023;-53
2023/03/16 15:44:37;;;;;;;1.33;0.80;;;;;;;;;;5102390;28;20114;-51
2023/03/16 15:47:03;;;;;;;0.90;0.55;;;;;;;;;;5101975;27;20577;-50
2023/03/16 15:49:29;;;;;;;1.42;0.75;;;;;;;;;;5103123;28;20035;-47
2023/03/16 15:51:55;;;;;;;0.98;0.50;;;;;;;;;;5104796;27;20418;-52
2023/03/16 15:54:22;;;;;;;2.55;0.82;;;;;;;;;;5083474;28;20085;-51
2023/03/16 15:56:48;;;;;;;1.00;0.60;;;;;;;;;;5104274;28;20020;-52
2023/03/16 15:59:18;;;;;;;2.05;0.80;;;;;;;;;;5102878;28;20098;-48
2023/03/16 16:01:46;;;;;;;2.13;1.00;;;;;;;;;;5103923;28;20027;-48
2023/03/16 16:04:14;;;;;;;1.63;1.02;;;;;;;;;;5103390;28;20043;-48
2023/03/16 16:06:41;;;;;;;1.00;0.70;;;;;;;;;;5102906;27;20102;-47
2023/03/16 16:09:07;;;;;;;1.05;0.60;;;;;;;;;;5087404;28;20445;-47
2023/03/16 16:11:33;;;;;;;2.70;1.05;;;;;;;;;;5101041;28;20034;-49
2023/03/16 16:14:00;;;;;;;1.35;0.82;;;;;;;;;;5086276;28;20069;-50
2023/03/16 16:16:27;;;;;;;1.35;0.70;;;;;;;;;;5103492;28;20605;-47
2023/03/16 16:18:54;;;;;;;1.02;0.90;;;;;;;;;;5103800;28;20050;-50
2023/03/16 16:21:23;;;;;;;1.38;0.80;;;;;;;;;;5103742;28;20050;-47
2023/03/16 16:23:49;;;;;;;1.50;0.80;;;;;;;;;;5104815;28;20114;-49
2023/03/16 16:26:18;;;;;;;2.50;1.10;;;;;;;;;;5103059;28;20460;-50
2023/03/16 16:28:46;;;;;;;1.42;0.80;;;;;;;;;;5100908;28;20093;-48
2023/03/16 16:31:13;;;;;;;1.80;1.10;;;;;;;;;;5102722;28;20038;-48
2023/03/16 16:33:39;;;;;;;1.17;1.00;;;;;;;;;;5103309;28;20031;-50
2023/03/16 16:36:17;;;;;;;1.70;0.95;;;;;;;;;;5102863;28;20024;-48
2023/03/16 16:38:44;;;;;;;1.65;0.80;;;;;;;;;;5102364;28;20020;-49
2023/03/16 16:41:20;;;;;;;1.20;0.73;;;;;;;;;;5104728;28;20015;-48
2023/03/16 16:43:47;;;;;;;1.58;0.95;;;;;;;;;;5104694;28;20514;-47
2023/03/16 16:46:14;;;;;;;1.30;0.90;;;;;;;;;;5103819;28;20114;-49
2023/03/16 16:48:43;;;;;;;1.63;0.82;;;;;;;;;;5102252;28;20114;-49
2023/03/16 16:51:14;;;;;;;1.50;0.90;;;;;;;;;;5105304;28;20046;-47
2023/03/16 16:53:40;;;;;;;1.38;0.88;;;;;;;;;;5105085;28;20045;-48
2023/03/16 16:56:11;;;;;;;2.42;1.02;;;;;;;;;;5096725;28;20629;-48
2023/03/16 16:58:38;;;;;;;1.80;1.17;;;;;;;;;;5103051;28;20019;-47
2023/03/16 17:01:05;;;;;;;1.23;0.90;;;;;;;;;;5104513;28;20028;-48
2023/03/16 17:03:32;;;;;;;1.33;1.02;;;;;;;;;;5109886;28;20058;-46
2023/03/16 17:05:59;;;;;;;4.22;1.00;;;;;;;;;;5117748;27;20028;-50
2023/03/16 17:08:26;;;;;;;2.40;1.30;;;;;;;;;;5107684;28;20055;-48
2023/03/16 17:10:52;;;;;;;2.47;1.50;;;;;;;;;;5101273;28;20024;-48
2023/03/16 17:13:27;;;;;;;2.88;1.30;;;;;;;;;;5102945;28;20035;-48
2023/03/16 17:15:54;;;;;;;4.13;1.50;;;;;;;;;;5104670;28;20437;-47
2023/03/16 17:18:20;;;;;;;2.50;1.45;;;;;;;;;;5104067;28;20023;-48
2023/03/16 17:20:47;;;;;;;1.83;1.20;;;;;;;;;;5105347;28;20028;-48
2023/03/16 17:23:29;;;;;;;3.33;1.15;;;;;;;;;;5103837;28;20077;-48
2023/03/16 17:25:57;;;;;;;2.95;1.30;;;;;;;;;;5113653;28;20036;-50
2023/03/16 17:28:24;;;;;;;2.08;1.40;;;;;;;;;;5102751;28;20414;-49
2023/03/16 17:30:51;;;;;;;3.47;1.30;;;;;;;;;;5108653;28;20028;-48
2023/03/16 17:33:18;;;;;;;2.17;1.58;;;;;;;;;;5102220;28;20023;-48
2023/03/16 17:35:45;;;;;;;3.03;1.30;;;;;;;;;;5104930;28;20032;-48
2023/03/16 17:38:18;;;;;;;7.95;3.78;;;;;;;;;;5101689;28;20584;-50
2023/03/16 17:40:45;;;;;;;26.58;10.80;;;;;;;;;;5104735;28;20448;-48
2023/03/16 17:43:15;;;;;;;14.88;5.43;;;;;;;;;;5101869;28;20023;-50
2023/03/16 17:45:41;;;;;;;6.57;3.13;;;;;;;;;;5102896;28;20579;-48
2023/03/16 17:48:12;;;;;;;5.10;2.55;;;;;;;;;;5103334;28;20023;-48
2023/03/16 17:50:38;;;;;;;3.28;1.80;;;;;;;;;;5107133;28;20024;-47
2023/03/16 17:53:04;;;;;;;4.30;1.52;;;;;;;;;;5105112;28;20458;-47
2023/03/16 17:55:32;;;;;;;2.72;1.60;;;;;;;;;;5106959;28;20135;-48
2023/03/16 17:58:00;;;;;;;4.53;2.20;;;;;;;;;;5085825;28;20584;-47
2023/03/16 18:00:27;;;;;;;4.07;1.73;;;;;;;;;;5107428;28;20051;-47
2023/03/16 18:02:56;;;;;;;3.67;1.63;;;;;;;;;;5103521;28;20020;-46
2023/03/16 18:05:28;;;;;;;2.55;1.58;;;;;;;;;;5105887;28;20594;-49
2023/03/16 18:07:55;;;;;;;3.90;1.70;;;;;;;;;;5100041;28;20027;-46
2023/03/16 18:10:25;;;;;;;3.78;1.55;;;;;;;;;;5106354;28;20031;-47
2023/03/16 18:13:21;;;;;;;4.43;1.77;;;;;;;;;;5101527;28;20059;-49
2023/03/16 18:15:48;;;;;;;3.28;1.58;;;;;;;;;;5087485;28;20040;-49
2023/03/16 18:18:21;;;;;;;2.75;1.40;;;;;;;;;;5104288;28;20525;-47
2023/03/16 18:20:49;;;;;;;1.98;1.33;;;;;;;;;;5106478;28;20024;-48
2023/03/16 18:23:19;;;;;;;2.25;1.45;;;;;;;;;;5103507;28;20027;-51
2023/03/16 18:25:47;;;;;;;2.15;1.23;;;;;;;;;;5105577;28;20164;-48
2023/03/16 18:28:13;;;;;;;4.55;1.38;;;;;;;;;;5104426;28;20020;-52
2023/03/16 18:30:41;;;;;;;2.45;1.13;;;;;;;;;;5106596;28;20092;-49
2023/03/16 18:33:07;;;;;;;3.17;1.30;;;;;;;;;;5101050;28;20032;-49
2023/03/16 18:35:34;;;;;;;3.00;1.35;;;;;;;;;;5105378;28;20527;-47
2023/03/16 18:38:00;;;;;;;5.45;1.70;;;;;;;;;;5104360;28;20055;-48
2023/03/16 18:40:27;;;;;;;2.72;1.70;;;;;;;;;;5108089;27;20027;-47
2023/03/16 18:42:53;;;;;;;2.13;1.17;;;;;;;;;;5087894;28;20529;-51
2023/03/16 18:45:20;;;;;;;3.22;1.30;;;;;;;;;;5103972;28;20133;-48
2023/03/16 18:47:53;;;;;;;2.05;1.00;;;;;;;;;;5087278;28;20039;-49
2023/03/16 18:50:21;;;;;;;1.58;1.10;;;;;;;;;;5104555;28;20541;-49
2023/03/16 18:52:48;;;;;;;3.47;1.63;;;;;;;;;;5105421;28;20027;-50
2023/03/16 18:55:15;;;;;;;2.35;1.23;;;;;;;;;;5104715;28;20107;-46
2023/03/16 18:57:43;;;;;;;2.30;1.35;;;;;;;;;;5087576;28;20062;-49
2023/03/16 19:00:20;;;;;;;2.33;1.20;;;;;;;;;;5106010;28;20015;-48
2023/03/16 19:02:48;;;;;;;2.83;2.03;;;;;;;;;;5105687;28;20054;-49
2023/03/16 19:05:17;;;;;;;3.25;1.73;;;;;;;;;;5106707;28;20034;-48
2023/03/16 19:07:45;;;;;;;2.90;1.85;;;;;;;;;;5105328;28;20429;-47
2023/03/16 19:10:26;;;;;;;3.53;2.10;;;;;;;;;;5105426;28;20035;-48
2023/03/16 19:12:52;;;;;;;4.30;2.05;;;;;;;;;;5111084;27;20027;-47
2023/03/16 19:15:23;;;;;;;1.85;1.40;;;;;;;;;;5127909;27;20421;-46
2023/03/16 19:17:50;;;;;;;1.60;1.40;;;;;;;;;;5126076;27;20047;-47
2023/03/16 19:20:20;;;;;;;4.15;1.35;;;;;;;;;;5126530;27;20510;-48
2023/03/16 19:22:47;;;;;;;2.95;1.35;;;;;;;;;;5125874;27;20028;-46
2023/03/16 19:25:18;;;;;;;3.15;1.20;;;;;;;;;;5125411;27;20027;-47
2023/03/16 19:27:45;;;;;;;3.10;1.45;;;;;;;;;;5126244;27;20035;-47
2023/03/16 19:30:27;;;;;;;1.50;1.02;;;;;;;;;;5126228;27;20039;-47
2023/03/16 19:32:55;;;;;;;2.28;1.30;;;;;;;;;;5124393;27;20020;-49
2023/03/16 19:35:22;;;;;;;3.10;1.30;;;;;;;;;;5126022;27;20027;-47
2023/03/16 19:37:50;;;;;;;3.75;1.45;;;;;;;;;;5125770;27;20024;-49
2023/03/16 19:40:17;;;;;;;4.05;1.55;;;;;;;;;;5126007;27;20023;-51
2023/03/16 19:42:44;;;;;;;3.70;1.50;;;;;;;;;;5126432;27;20027;-51
2023/03/16 19:45:32;;;;;;;2.63;1.65;;;;;;;;;;5126301;27;20035;-49
2023/03/16 19:47:58;;;;;;;2.83;1.67;;;;;;;;;;5125646;27;20023;-51
2023/03/16 19:50:25;;;;;;;3.63;1.48;;;;;;;;;;5125690;27;20531;-50
2023/03/16 19:52:52;;;;;;;3.22;1.65;;;;;;;;;;5125650;27;20117;-47
2023/03/16 19:55:23;;;;;;;4.40;1.70;;;;;;;;;;5125564;27;20429;-47
2023/03/16 19:57:58;;;;;;;2.90;1.38;;;;;;;;;;5125345;27;20074;-48
2023/03/16 20:00:25;;;;;;;2.67;1.45;;;;;;;;;;5125355;27;20505;-48
2023/03/16 20:02:54;;;;;;;2.67;1.10;;;;;;;;;;5125354;27;20110;-47